Time;durP1;ratioP1;P1;durP2;ratioP2;P2;SDS_P1;SDS_P2;PMS_P1;PMS_P2;Temp;Humidity;BMP_temperature;BMP_pressure;BME280_temperature;BME280_humidity;BME280_pressure;Samples;Min_cycle;Max_cycle;Signal;HPM_P1;HPM_P2
2022/09/11 00:01:14;;;;;;;8.03;6.67;;;;;;;12.48;100.00;99772.36;1645036;85;21164;-70
2022/09/11 00:03:38;;;;;;;6.55;6.05;;;;;;;12.52;100.00;99762.87;1681690;85;21130;-69
2022/09/11 00:06:09;;;;;;;7.92;5.92;;;;;;;12.60;100.00;99772.48;1682670;84;21040;-69
2022/09/11 00:08:39;;;;;;;6.50;5.80;;;;;;;12.66;100.00;99760.95;1682656;84;21025;-70
2022/09/11 00:11:16;;;;;;;11.18;5.85;;;;;;;12.68;100.00;99761.55;1682463;85;21056;-71
2022/09/11 00:13:45;;;;;;;6.50;5.90;;;;;;;12.73;100.00;99765.71;1682806;84;21028;-70
2022/09/11 00:16:33;;;;;;;6.60;5.62;;;;;;;12.75;100.00;99767.67;1644734;85;21053;-72
2022/09/11 00:19:03;;;;;;;6.33;5.53;;;;;;;12.83;100.00;99782.64;1682901;85;21581;-70
2022/09/11 00:21:30;;;;;;;8.48;6.03;;;;;;;12.88;100.00;99760.05;1682090;83;21021;-73
2022/09/11 00:23:57;;;;;;;10.90;6.17;;;;;;;12.93;100.00;99750.05;1682437;85;21031;-70
2022/09/11 00:26:23;;;;;;;;;;;;;;;12.91;100.00;99746.78;1647058;85;21089;-70
2022/09/11 00:28:51;;;;;;;7.40;6.35;;;;;;;12.94;100.00;99739.14;1656951;85;20438;-70
2022/09/11 00:31:21;;;;;;;7.95;5.83;;;;;;;12.93;100.00;99740.16;1644922;87;21022;-70
2022/09/11 00:33:49;;;;;;;8.60;6.12;;;;;;;12.93;100.00;99718.77;1644847;85;21041;-74
2022/09/11 00:36:20;;;;;;;6.60;5.95;;;;;;;12.93;100.00;99725.45;1644804;85;21125;-69
2022/09/11 00:38:48;;;;;;;7.40;5.97;;;;;;;12.94;100.00;99728.94;1645019;86;21062;-72
2022/09/11 00:41:22;;;;;;;7.58;5.55;;;;;;;12.91;100.00;99716.83;1644818;84;21587;-70
2022/09/11 00:44:02;;;;;;;10.63;6.78;;;;;;;12.93;100.00;99723.30;1645038;86;21112;-72
2022/09/11 00:46:37;;;;;;;9.70;6.65;;;;;;;12.93;100.00;99720.63;1645085;87;21062;-70
2022/09/11 00:49:29;;;;;;;6.12;5.53;;;;;;;12.92;100.00;99713.63;1657988;85;21077;-70
2022/09/11 00:52:13;;;;;;;7.55;6.65;;;;;;;12.89;100.00;99706.87;1682908;85;21008;-71
2022/09/11 00:55:00;;;;;;;8.00;6.92;;;;;;;12.89;100.00;99713.56;1682217;85;21104;-70
2022/09/11 00:57:31;;;;;;;11.35;5.95;;;;;;;12.89;100.00;99705.53;1682643;84;21025;-70
2022/09/11 01:00:00;;;;;;;7.33;6.65;;;;;;;12.87;100.00;99699.59;1682624;85;21037;-70
2022/09/11 01:02:28;;;;;;;8.00;7.03;;;;;;;12.89;100.00;99691.34;1644629;85;21044;-70
2022/09/11 01:04:58;;;;;;;8.90;6.50;;;;;;;12.90;100.00;99700.47;1682613;84;21596;-70
2022/09/11 01:07:27;;;;;;;6.20;5.72;;;;;;;12.91;100.00;99708.80;1644914;87;21040;-70
2022/09/11 01:09:54;;;;;;;6.72;6.12;;;;;;;12.88;100.00;99727.14;1645156;85;21558;-69
2022/09/11 01:12:48;;;;;;;7.28;6.58;;;;;;;12.81;100.00;99721.86;1644892;85;21517;-72
2022/09/11 01:15:26;;;;;;;8.50;7.60;;;;;;;12.83;100.00;99703.21;1682742;85;21048;-69
2022/09/11 01:18:10;;;;;;;8.15;7.10;;;;;;;12.80;100.00;99700.96;1681783;84;21028;-73
2022/09/11 01:21:18;;;;;;;7.50;6.80;;;;;;;12.80;100.00;99696.14;1682209;83;21009;-70
2022/09/11 01:24:00;;;;;;;;;;;;;;;12.76;100.00;99708.31;1685670;85;21052;-70
2022/09/11 01:27:05;;;;;;;7.45;6.85;;;;;;;12.73;100.00;99696.71;1681932;85;20128;-71
2022/09/11 01:29:50;;;;;;;7.75;6.90;;;;;;;12.64;100.00;99699.66;1657656;85;21517;-70
2022/09/11 01:33:10;;;;;;;10.15;7.58;;;;;;;12.65;100.00;99693.27;1644749;86;21076;-71
2022/09/11 01:35:57;;;;;;;8.43;7.33;;;;;;;12.65;100.00;99694.60;1644716;87;21204;-72
2022/09/11 01:38:39;;;;;;;8.03;7.15;;;;;;;12.65;100.00;99697.80;1682563;84;21128;-69
2022/09/11 01:41:15;;;;;;;8.28;7.47;;;;;;;12.65;100.00;99689.25;1682347;84;21572;-69
2022/09/11 01:43:55;;;;;;;7.85;7.25;;;;;;;12.66;100.00;99686.08;1683129;85;21028;-70
2022/09/11 01:46:24;;;;;;;10.15;7.97;;;;;;;12.71;100.00;99684.89;1682492;84;21604;-72
2022/09/11 01:49:21;;;;;;;9.98;7.33;;;;;;;12.71;100.00;99682.73;1682796;84;21072;-70
2022/09/11 01:51:56;;;;;;;9.55;8.60;;;;;;;12.72;100.00;99679.86;1645187;86;21073;-69
2022/09/11 01:54:28;;;;;;;8.20;7.58;;;;;;;12.72;100.00;99679.05;1632138;87;21136;-70
2022/09/11 01:57:05;;;;;;;8.15;7.45;;;;;;;12.73;100.00;99689.50;1682511;83;21048;-70
2022/09/11 01:59:43;;;;;;;8.23;7.42;;;;;;;12.75;100.00;99690.13;1682954;85;21043;-71
2022/09/11 02:02:13;;;;;;;8.40;7.62;;;;;;;12.74;100.00;99681.79;1682435;84;21529;-70
2022/09/11 02:04:57;;;;;;;8.50;7.70;;;;;;;12.76;100.00;99675.70;1644938;86;21009;-70
2022/09/11 02:07:40;;;;;;;9.60;6.55;;;;;;;12.78;100.00;99671.48;1682682;85;21076;-70
2022/09/11 02:10:13;;;;;;;9.55;7.17;;;;;;;12.80;100.00;99681.44;1645075;85;21061;-70
2022/09/11 02:12:51;;;;;;;11.68;7.87;;;;;;;12.81;100.00;99674.53;1682515;84;21549;-71
2022/09/11 02:15:21;;;;;;;8.93;7.60;;;;;;;12.84;100.00;99669.25;1682714;85;21052;-70
2022/09/11 02:17:56;;;;;;;8.98;7.95;;;;;;;12.86;100.00;99673.86;1682434;84;21068;-69
2022/09/11 02:20:24;;;;;;;8.43;7.72;;;;;;;12.90;100.00;99673.72;1682490;83;21096;-70
2022/09/11 02:22:51;;;;;;;8.70;7.90;;;;;;;12.94;100.00;99652.20;1682575;85;21526;-70
2022/09/11 02:25:18;;;;;;;8.45;7.58;;;;;;;12.96;100.00;99663.50;1644960;86;21493;-71
2022/09/11 02:27:45;;;;;;;7.97;7.35;;;;;;;12.98;100.00;99656.06;1645099;87;21070;-70
2022/09/11 02:30:12;;;;;;;;;;;;;;;13.02;100.00;99650.57;1685059;83;21088;-71
2022/09/11 02:32:42;;;;;;;7.37;6.87;;;;;;;13.06;100.00;99650.95;1682528;84;20484;-70
2022/09/11 02:35:10;;;;;;;9.68;6.83;;;;;;;13.03;100.00;99644.20;1645096;86;21096;-71
2022/09/11 02:38:04;;;;;;;8.40;7.62;;;;;;;13.05;100.00;99647.96;1644941;86;21085;-70
2022/09/11 02:40:49;;;;;;;9.50;8.60;;;;;;;13.08;100.00;99652.07;1682499;84;21120;-69
2022/09/11 02:43:27;;;;;;;8.33;7.40;;;;;;;13.10;100.00;99646.78;1645044;86;21106;-70
2022/09/11 02:46:16;;;;;;;8.00;7.30;;;;;;;13.14;100.00;99655.19;1644624;84;21018;-71
2022/09/11 02:49:11;;;;;;;8.73;7.95;;;;;;;13.14;100.00;99652.52;1645412;86;20990;-70
2022/09/11 02:51:50;;;;;;;8.90;8.20;;;;;;;13.17;100.00;99657.44;1645101;87;21029;-70
2022/09/11 02:54:33;;;;;;;8.38;7.62;;;;;;;13.16;100.00;99657.13;1644793;84;21042;-72
2022/09/11 02:57:29;;;;;;;8.98;8.28;;;;;;;13.15;100.00;99656.84;1645239;85;21093;-71
2022/09/11 03:00:00;;;;;;;9.00;8.20;;;;;;;13.17;100.00;99662.25;1645188;86;21884;-71
2022/09/11 03:02:31;;;;;;;9.28;8.38;;;;;;;13.16;100.00;99663.81;1645038;86;21033;-69
2022/09/11 03:04:57;;;;;;;11.08;9.38;;;;;;;13.15;100.00;99657.66;1682565;84;21017;-70
2022/09/11 03:07:25;;;;;;;8.60;7.85;;;;;;;13.15;100.00;99657.66;1682790;85;21060;-73
2022/09/11 03:09:51;;;;;;;;;;;;;;;13.15;100.00;99670.22;1647457;85;21435;-70
2022/09/11 03:12:20;;;;;;;7.55;6.97;;;;;;;13.14;100.00;99661.35;1656768;85;20165;-71
2022/09/11 03:14:50;;;;;;;6.95;6.50;;;;;;;13.12;100.00;99666.64;1644580;86;21065;-69
2022/09/11 03:17:16;;;;;;;8.40;7.60;;;;;;;13.13;100.00;99663.75;1644626;84;21010;-70
2022/09/11 03:19:45;;;;;;;8.35;7.67;;;;;;;13.15;100.00;99666.20;1644783;86;21128;-70
2022/09/11 03:22:11;;;;;;;;;;;;;;;13.17;100.00;99669.48;1647543;85;21125;-69
2022/09/11 03:24:38;;;;;;;8.65;8.00;;;;;;;13.21;100.00;99673.34;1644901;86;20448;-69
2022/09/11 03:27:05;;;;;;;9.55;8.73;;;;;;;13.17;100.00;99669.48;1645013;86;21014;-70
2022/09/11 03:31:12;;;;;;;8.85;8.15;;;;;;;13.26;100.00;99672.16;1802926;79;22208;-70
2022/09/11 03:33:39;;;;;;;8.78;8.18;;;;;;;13.24;100.00;99671.53;1695471;82;21080;-70
2022/09/11 03:36:05;;;;;;;10.03;9.08;;;;;;;13.26;100.00;99664.13;1664754;84;21069;-70
2022/09/11 03:38:31;;;;;;;;;;;;;;;13.30;100.00;99677.39;1695809;85;21017;-70
2022/09/11 03:40:58;;;;;;;9.48;8.63;;;;;;;13.34;100.00;99678.58;1672401;84;20107;-70
2022/09/11 03:43:24;;;;;;;9.43;8.73;;;;;;;13.33;100.00;99686.30;1668829;86;21042;-70
2022/09/11 03:45:51;;;;;;;10.18;8.25;;;;;;;13.39;100.00;99694.80;1693456;84;21069;-72
2022/09/11 03:48:18;;;;;;;7.47;6.92;;;;;;;13.43;100.00;99691.97;1681909;84;21041;-71
2022/09/11 03:50:48;;;;;;;5.97;5.58;;;;;;;13.47;100.00;99697.70;1693382;85;21569;-73
2022/09/11 03:53:15;;;;;;;5.08;4.67;;;;;;;13.52;100.00;99701.03;1681747;84;21141;-70
2022/09/11 03:55:41;;;;;;;3.42;3.30;;;;;;;13.58;100.00;99710.84;1667063;86;21042;-69
2022/09/11 03:58:08;;;;;;;2.55;2.45;;;;;;;13.62;100.00;99714.73;1622288;85;21038;-70
2022/09/11 04:00:46;;;;;;;1.10;1.00;;;;;;;13.64;100.00;99718.00;1657608;84;21016;-71
2022/09/11 04:03:11;;;;;;;0.45;0.45;;;;;;;13.62;100.00;99712.06;1679075;85;21045;-71
2022/09/11 04:05:43;;;;;;;0.20;0.20;;;;;;;13.60;100.00;99715.48;1633580;87;21488;-70
2022/09/11 04:08:13;;;;;;;0.37;0.10;;;;;;;13.57;100.00;99726.09;1651888;84;21066;-71
2022/09/11 04:10:42;;;;;;;0.20;0.13;;;;;;;13.53;100.00;99729.45;1700472;84;21085;-70
2022/09/11 04:13:09;;;;;;;0.10;0.10;;;;;;;13.45;100.00;99733.25;1700505;83;21109;-69
2022/09/11 04:15:36;;;;;;;0.20;0.20;;;;;;;13.38;100.00;99739.99;1676811;84;21092;-71
2022/09/11 04:18:06;;;;;;;0.85;0.33;;;;;;;13.34;100.00;99744.69;1700559;83;21013;-72
2022/09/11 04:20:33;;;;;;;1.82;0.40;;;;;;;13.28;100.00;99744.17;1700542;83;21370;-70
2022/09/11 04:22:59;;;;;;;1.17;0.45;;;;;;;13.19;100.00;99739.64;1677140;84;21025;-69
2022/09/11 04:25:26;;;;;;;0.62;0.62;;;;;;;13.16;100.00;99741.41;1700345;83;21013;-70
2022/09/11 04:27:52;;;;;;;1.92;0.53;;;;;;;13.14;100.00;99749.66;1700905;84;21056;-71
2022/09/11 04:30:18;;;;;;;0.65;0.50;;;;;;;13.11;100.00;99754.12;1700324;81;21053;-70
2022/09/11 04:32:45;;;;;;;3.27;0.50;;;;;;;13.12;100.00;99753.07;1700594;83;21131;-69
2022/09/11 04:35:11;;;;;;;0.37;0.37;;;;;;;13.14;100.00;99759.55;1700681;84;20999;-72
2022/09/11 04:37:39;;;;;;;2.40;0.70;;;;;;;13.13;100.00;99747.19;1699310;83;21021;-71
2022/09/11 04:40:08;;;;;;;0.40;0.33;;;;;;;13.13;100.00;99741.34;1700605;83;21059;-71
2022/09/11 04:42:35;;;;;;;1.30;0.40;;;;;;;13.12;100.00;99748.25;1699594;84;21798;-71
2022/09/11 04:45:01;;;;;;;0.90;0.75;;;;;;;13.09;100.00;99746.84;1700400;80;21054;-73
2022/09/11 04:47:28;;;;;;;0.53;0.45;;;;;;;13.10;100.00;99753.00;1700259;84;21060;-72
2022/09/11 04:49:56;;;;;;;2.27;0.50;;;;;;;13.11;100.00;99753.28;1700089;82;21576;-73
2022/09/11 04:52:22;;;;;;;1.85;0.82;;;;;;;13.11;100.00;99753.28;1700112;81;21064;-73
2022/09/11 04:54:49;;;;;;;3.85;1.15;;;;;;;13.11;100.00;99751.95;1700484;84;21018;-71
2022/09/11 04:57:16;;;;;;;1.15;0.50;;;;;;;13.11;100.00;99746.59;1700256;84;21049;-74
2022/09/11 04:59:43;;;;;;;0.60;0.60;;;;;;;13.10;100.00;99744.45;1699978;84;21545;-75
2022/09/11 05:02:11;;;;;;;0.55;0.55;;;;;;;13.12;100.00;99746.91;1699929;82;21549;-71
2022/09/11 05:04:40;;;;;;;0.40;0.40;;;;;;;13.15;100.00;99745.14;1695583;83;21065;-76
2022/09/11 05:07:07;;;;;;;0.82;0.33;;;;;;;13.15;100.00;99747.81;1682128;85;21088;-70
2022/09/11 05:09:34;;;;;;;0.50;0.50;;;;;;;13.14;100.00;99747.50;1692113;84;21592;-71
2022/09/11 05:12:02;;;;;;;3.00;0.37;;;;;;;13.13;100.00;99745.36;1698081;84;21534;-69
2022/09/11 05:14:31;;;;;;;1.30;0.42;;;;;;;13.13;100.00;99745.85;1698252;84;21089;-69
2022/09/11 05:17:00;;;;;;;0.30;0.30;;;;;;;13.13;100.00;99748.53;1697795;84;21546;-77
2022/09/11 05:19:26;;;;;;;0.53;0.53;;;;;;;13.10;100.00;99747.13;1698114;84;21054;-74
2022/09/11 05:21:53;;;;;;;0.40;0.40;;;;;;;13.07;100.00;99749.41;1661648;85;21011;-74
2022/09/11 05:24:20;;;;;;;1.02;0.42;;;;;;;13.01;100.00;99757.27;1678336;85;21551;-74
2022/09/11 05:26:46;;;;;;;1.10;0.60;;;;;;;12.97;100.00;99763.28;1678793;85;21043;-74
2022/09/11 05:29:14;;;;;;;0.55;0.30;;;;;;;12.93;100.00;99768.78;1682304;84;21039;-73
2022/09/11 05:31:48;;;;;;;1.17;0.70;;;;;;;12.90;100.00;99771.87;1675674;85;21122;-75
2022/09/11 05:34:16;;;;;;;0.47;0.40;;;;;;;12.85;100.00;99769.87;1685902;83;21087;-74
2022/09/11 05:36:42;;;;;;;0.88;0.40;;;;;;;12.83;100.00;99775.95;1686232;83;21070;-76
2022/09/11 05:39:09;;;;;;;1.70;0.60;;;;;;;12.81;100.00;99775.35;1686473;84;21483;-73
2022/09/11 05:41:36;;;;;;;0.93;0.40;;;;;;;12.80;100.00;99773.17;1685715;83;21566;-75
2022/09/11 05:44:03;;;;;;;0.40;0.40;;;;;;;12.81;100.00;99776.16;1686305;84;21011;-72
2022/09/11 05:46:29;;;;;;;0.57;0.40;;;;;;;12.82;100.00;99776.97;1686027;84;21104;-72
2022/09/11 05:48:58;;;;;;;0.50;0.50;;;;;;;12.81;100.00;99776.16;1684524;83;21024;-72
2022/09/11 05:51:25;;;;;;;1.30;0.40;;;;;;;12.82;100.00;99776.97;1685822;85;21028;-71
2022/09/11 05:53:54;;;;;;;2.05;0.72;;;;;;;12.82;100.00;99778.31;1685704;83;21074;-69
2022/09/11 05:56:23;;;;;;;1.27;0.37;;;;;;;12.83;100.00;99775.95;1685678;84;21010;-68
2022/09/11 05:58:51;;;;;;;1.00;0.70;;;;;;;12.85;100.00;99769.34;1685857;84;21582;-68
2022/09/11 06:01:21;;;;;;;1.15;1.02;;;;;;;12.91;100.00;99770.85;1685729;83;21495;-71
2022/09/11 06:07:56;;;;;;;2.27;1.27;;;;;;;12.99;100.00;99782.61;1685028;85;21063;-69
2022/09/11 06:10:22;;;;;;;;;;;;;;;12.85;100.00;99777.36;1688301;83;21058;-71
2022/09/11 06:12:49;;;;;;;0.30;0.30;;;;;;;12.84;100.00;99781.06;1685961;83;20141;-68
2022/09/11 06:15:15;;;;;;;0.45;0.30;;;;;;;12.80;100.00;99774.52;1685980;85;21091;-70
2022/09/11 06:17:41;;;;;;;0.20;0.20;;;;;;;12.80;100.00;99780.38;1685009;84;20972;-68
2022/09/11 06:20:11;;;;;;;0.50;0.50;;;;;;;12.78;100.00;99777.11;1673660;83;21607;-68
2022/09/11 06:22:38;;;;;;;0.85;0.37;;;;;;;12.79;100.00;99780.91;1685827;84;21563;-68
2022/09/11 06:25:05;;;;;;;2.15;0.37;;;;;;;12.80;100.00;99773.17;1685930;83;21087;-68
2022/09/11 06:27:32;;;;;;;1.65;0.40;;;;;;;12.82;100.00;99772.44;1685963;84;21075;-68
2022/09/11 06:29:59;;;;;;;;;;;;;;;12.85;100.00;99769.34;1682001;83;21071;-74
2022/09/11 06:32:25;;;;;;;1.42;0.20;;;;;;;12.90;100.00;99780.71;1682954;84;20140;-69
2022/09/11 06:34:51;;;;;;;0.35;0.20;;;;;;;12.84;100.00;99780.25;1710452;84;21538;-68
2022/09/11 06:37:17;;;;;;;0.98;0.42;;;;;;;12.84;100.00;99782.39;1710254;83;21527;-69
2022/09/11 06:39:44;;;;;;;0.23;0.23;;;;;;;12.85;100.00;99782.71;1710268;83;21027;-68
2022/09/11 06:42:12;;;;;;;0.75;0.40;;;;;;;12.87;100.00;99779.02;1709361;83;21515;-68
2022/09/11 06:44:40;;;;;;;1.00;0.33;;;;;;;12.90;100.00;99782.05;1710372;83;21015;-68
2022/09/11 06:47:06;;;;;;;1.98;0.20;;;;;;;12.92;100.00;99785.84;1709932;83;21491;-69
2022/09/11 06:49:34;;;;;;;1.95;0.17;;;;;;;12.92;100.00;99792.53;1709755;83;21610;-69
2022/09/11 06:52:20;;;;;;;0.13;0.10;;;;;;;12.92;100.00;99784.02;1708705;83;21075;-69
2022/09/11 06:54:49;;;;;;;0.35;0.17;;;;;;;12.94;100.00;99790.45;1709145;84;21562;-73
2022/09/11 06:57:15;;;;;;;0.23;0.23;;;;;;;12.96;100.00;99786.55;1709756;82;21546;-69
2022/09/11 06:59:42;;;;;;;0.17;0.10;;;;;;;12.99;100.00;99787.44;1710064;84;20979;-69
2022/09/11 07:02:08;;;;;;;;;;;;;;;13.04;100.00;99788.95;1712459;83;21030;-72
2022/09/11 07:04:34;;;;;;;0.30;0.20;;;;;;;13.09;100.00;99799.51;1687782;84;20416;-69
2022/09/11 07:07:00;;;;;;;0.20;0.20;;;;;;;13.10;100.00;99805.17;1698388;84;21110;-68
2022/09/11 07:09:27;;;;;;;0.72;0.10;;;;;;;13.15;100.00;99810.70;1697549;84;21031;-69
2022/09/11 07:11:55;;;;;;;1.05;0.20;;;;;;;13.17;100.00;99805.95;1697625;84;21138;-68
2022/09/11 07:14:23;;;;;;;0.30;0.20;;;;;;;13.19;100.00;99807.88;1725604;82;21090;-70
2022/09/11 07:16:53;;;;;;;0.53;0.20;;;;;;;13.22;100.00;99813.62;1726299;82;21003;-68
2022/09/11 07:19:23;;;;;;;0.90;0.23;;;;;;;13.25;100.00;99812.36;1727082;83;21066;-68
2022/09/11 07:21:49;;;;;;;0.30;0.20;;;;;;;13.25;100.00;99816.37;1726425;82;21062;-69
2022/09/11 07:24:16;;;;;;;0.80;0.25;;;;;;;13.25;100.00;99817.70;1726810;82;21018;-68
2022/09/11 07:26:43;;;;;;;3.40;0.20;;;;;;;13.25;100.00;99829.22;1726442;82;21070;-70
2022/09/11 07:29:12;;;;;;;0.20;0.20;;;;;;;13.24;100.00;99834.78;1724305;82;21026;-74
2022/09/11 07:31:38;;;;;;;0.40;0.20;;;;;;;13.20;100.00;99831.75;1718329;82;21067;-70
2022/09/11 07:34:05;;;;;;;;;;;;;;;13.19;100.00;99821.27;1718196;83;21299;-70
2022/09/11 07:36:34;;;;;;;0.20;0.20;;;;;;;13.19;100.00;99823.41;1715475;83;20406;-70
2022/09/11 07:39:02;;;;;;;0.25;0.20;;;;;;;13.18;100.00;99824.44;1715766;83;21031;-71
2022/09/11 07:41:31;;;;;;;0.17;0.17;;;;;;;13.22;100.00;99828.84;1715391;83;21139;-69
2022/09/11 07:44:00;;;;;;;0.15;0.10;;;;;;;13.26;100.00;99831.41;1715725;83;21123;-69
2022/09/11 07:46:28;;;;;;;0.35;0.20;;;;;;;13.28;99.19;99833.84;1715416;83;21105;-71
2022/09/11 07:48:57;;;;;;;0.30;0.20;;;;;;;13.26;97.19;99824.71;1715620;83;21053;-70
2022/09/11 07:51:25;;;;;;;0.20;0.20;;;;;;;13.22;96.91;99819.47;1715883;82;20984;-72
2022/09/11 07:53:54;;;;;;;0.42;0.42;;;;;;;13.21;96.13;99813.30;1700929;83;21019;-71
2022/09/11 07:56:25;;;;;;;0.55;0.20;;;;;;;13.23;96.48;99806.41;1715668;83;21075;-70
2022/09/11 07:58:56;;;;;;;0.42;0.20;;;;;;;13.28;96.97;99802.56;1715944;83;21106;-72
2022/09/11 08:01:28;;;;;;;0.30;0.30;;;;;;;13.35;96.81;99810.02;1715823;83;21094;-70
2022/09/11 08:03:57;;;;;;;0.42;0.30;;;;;;;13.39;95.78;99821.95;1716128;83;21509;-68
2022/09/11 08:06:28;;;;;;;2.27;0.25;;;;;;;13.40;95.37;99818.22;1715387;83;21272;-70
2022/09/11 08:08:59;;;;;;;0.30;0.28;;;;;;;13.39;94.20;99820.61;1715759;83;21118;-71
2022/09/11 08:11:27;;;;;;;0.20;0.20;;;;;;;13.36;92.89;99821.04;1678308;84;21043;-72
2022/09/11 08:13:55;;;;;;;0.28;0.20;;;;;;;13.34;94.00;99817.77;1715484;83;21091;-70
2022/09/11 08:16:25;;;;;;;1.47;0.40;;;;;;;13.35;94.96;99813.22;1715690;82;20995;-71
2022/09/11 08:18:53;;;;;;;2.22;0.20;;;;;;;13.38;95.53;99814.95;1716029;83;21131;-69
2022/09/11 08:21:21;;;;;;;0.80;0.30;;;;;;;13.43;95.23;99812.44;1715916;83;21039;-70
2022/09/11 08:23:47;;;;;;;0.65;0.40;;;;;;;13.50;95.85;99819.05;1716177;83;21082;-68
2022/09/11 08:26:25;;;;;;;0.45;0.30;;;;;;;13.55;94.38;99811.72;1716005;83;21027;-71
2022/09/11 08:28:55;;;;;;;0.40;0.40;;;;;;;13.52;92.00;99810.28;1715884;83;21507;-69
2022/09/11 08:31:25;;;;;;;0.20;0.20;;;;;;;13.50;93.24;99804.86;1701333;84;21082;-71
2022/09/11 08:33:56;;;;;;;0.65;0.40;;;;;;;13.49;92.22;99807.25;1715556;83;21031;-69
2022/09/11 08:36:24;;;;;;;0.50;0.50;;;;;;;13.47;92.33;99811.98;1715716;83;21027;-68
2022/09/11 08:38:51;;;;;;;0.23;0.20;;;;;;;13.47;92.21;99813.31;1716155;83;21011;-70
2022/09/11 08:41:36;;;;;;;0.40;0.40;;;;;;;13.46;91.41;99804.47;1715977;83;21515;-72
2022/09/11 08:44:17;;;;;;;0.40;0.40;;;;;;;13.50;92.83;99794.15;1715785;83;21782;-69
2022/09/11 08:46:49;;;;;;;0.33;0.23;;;;;;;13.63;93.66;99796.69;1716157;84;21572;-70
2022/09/11 08:49:33;;;;;;;0.40;0.40;;;;;;;13.79;94.07;99797.45;1701456;84;21238;-72
2022/09/11 08:52:04;;;;;;;0.40;0.40;;;;;;;13.98;93.68;99798.80;1715744;83;21880;-69
2022/09/11 08:54:37;;;;;;;0.40;0.40;;;;;;;14.09;91.85;99795.37;1715784;83;21035;-71
2022/09/11 08:57:41;;;;;;;0.40;0.40;;;;;;;14.12;90.40;99810.98;1716014;83;21050;-70
2022/09/11 09:00:32;;;;;;;0.57;0.57;;;;;;;14.10;89.25;99813.08;1716005;83;21515;-71
2022/09/11 09:03:32;;;;;;;0.50;0.50;;;;;;;14.08;89.81;99811.14;1716140;83;21042;-72
2022/09/11 09:06:24;;;;;;;0.30;0.23;;;;;;;14.08;89.99;99803.10;1716090;83;21095;-81
2022/09/11 09:13:44;;;;;;;0.40;0.40;;;;;;;14.18;90.11;99799.89;1714706;83;21050;-80
2022/09/11 09:16:51;;;;;;;0.40;0.35;;;;;;;14.21;90.17;99809.64;1714912;83;21027;-83
2022/09/11 09:19:33;;;;;;;2.75;0.42;;;;;;;14.25;90.71;99812.69;1715243;83;21163;-79
2022/09/11 09:22:19;;;;;;;0.60;0.57;;;;;;;14.25;90.27;99814.56;1701054;84;21003;-81
2022/09/11 09:24:54;;;;;;;0.60;0.60;;;;;;;14.28;90.48;99812.75;1716090;83;20945;-79
2022/09/11 09:27:31;;;;;;;0.50;0.47;;;;;;;14.34;89.81;99814.55;1715998;83;21495;-77
2022/09/11 09:30:05;;;;;;;0.50;0.50;;;;;;;14.37;89.24;99802.02;1715860;83;21046;-78
2022/09/11 09:32:59;;;;;;;0.62;0.62;;;;;;;14.40;89.50;99812.30;1715845;83;21570;-78
2022/09/11 09:35:38;;;;;;;1.22;0.40;;;;;;;14.41;89.84;99808.59;1715978;83;21051;-78
2022/09/11 09:38:13;;;;;;;3.58;0.45;;;;;;;14.44;90.15;99805.44;1715822;83;21034;-78
2022/09/11 09:41:07;;;;;;;0.55;0.55;;;;;;;14.48;90.43;99808.48;1715800;83;21019;-82
2022/09/11 09:43:49;;;;;;;1.90;0.82;;;;;;;14.43;89.34;99810.52;1716086;83;21150;-78
2022/09/11 09:46:40;;;;;;;1.45;0.85;;;;;;;14.35;89.57;99813.00;1716033;83;21062;-79
2022/09/11 09:49:10;;;;;;;0.93;0.60;;;;;;;14.29;89.48;99807.70;1715604;83;21107;-79
2022/09/11 09:51:38;;;;;;;4.40;1.10;;;;;;;14.23;90.07;99805.94;1714887;83;21036;-79
2022/09/11 09:54:05;;;;;;;1.85;0.82;;;;;;;14.24;90.80;99811.08;1716097;83;21070;-78
2022/09/11 09:56:36;;;;;;;0.98;0.98;;;;;;;14.31;90.78;99812.31;1695922;84;21019;-81
2022/09/11 09:59:13;;;;;;;1.42;1.30;;;;;;;14.38;90.43;99804.48;1687591;84;21000;-80
2022/09/11 10:01:49;;;;;;;;;;;;;;;14.46;90.42;99803.87;1690007;84;21077;-80
2022/09/11 10:04:22;;;;;;;2.85;1.20;;;;;;;14.57;90.14;99800.45;1689851;83;20165;-78
2022/09/11 10:06:52;;;;;;;1.52;1.45;;;;;;;14.58;89.14;99800.77;1716138;83;21003;-77
2022/09/11 10:09:28;;;;;;;1.42;1.22;;;;;;;14.60;88.78;99798.14;1715946;83;21143;-79
2022/09/11 10:12:04;;;;;;;1.65;1.50;;;;;;;14.63;87.76;99800.88;1716205;83;21058;-82
2022/09/11 10:14:40;;;;;;;2.13;2.00;;;;;;;14.56;86.70;99796.93;1716296;83;21428;-80
2022/09/11 10:17:29;;;;;;;4.35;2.10;;;;;;;14.45;86.31;99799.55;1715915;83;21499;-79
2022/09/11 10:20:24;;;;;;;1.65;1.55;;;;;;;14.36;86.84;99804.42;1715855;83;21168;-78
2022/09/11 10:22:53;;;;;;;2.10;1.55;;;;;;;14.35;87.84;99810.81;1698561;84;21045;-78
2022/09/11 10:25:26;;;;;;;3.40;2.33;;;;;;;14.33;88.08;99806.20;1711774;83;21046;-81
2022/09/11 10:28:18;;;;;;;2.80;2.60;;;;;;;14.29;88.03;99807.17;1716285;83;21134;-79
2022/09/11 10:31:01;;;;;;;2.70;2.60;;;;;;;14.28;87.68;99804.71;1716260;83;21523;-80
2022/09/11 10:33:35;;;;;;;3.50;3.12;;;;;;;14.23;87.35;99811.30;1715866;83;21071;-78
2022/09/11 10:36:07;;;;;;;5.50;3.33;;;;;;;14.15;87.30;99803.04;1715759;83;21130;-80
2022/09/11 10:38:46;;;;;;;2.87;2.75;;;;;;;14.11;87.59;99796.47;1716245;83;21031;-81
2022/09/11 10:41:20;;;;;;;3.58;3.33;;;;;;;14.16;88.42;99790.73;1715811;83;21015;-77
2022/09/11 10:43:52;;;;;;;3.83;3.52;;;;;;;14.24;88.42;99793.65;1716552;84;21063;-79
2022/09/11 10:46:36;;;;;;;3.40;3.20;;;;;;;14.32;88.43;99790.65;1715843;82;21026;-81
2022/09/11 10:49:16;;;;;;;4.12;3.75;;;;;;;14.37;88.37;99787.27;1715879;83;21082;-82
2022/09/11 10:52:04;;;;;;;4.00;3.85;;;;;;;14.44;88.61;99790.69;1715819;83;21062;-79
2022/09/11 10:54:52;;;;;;;4.22;4.03;;;;;;;14.50;88.60;99791.11;1716041;84;21098;-77
2022/09/11 10:57:43;;;;;;;3.77;3.60;;;;;;;14.59;88.72;99789.78;1715841;83;21082;-78
2022/09/11 11:00:19;;;;;;;3.58;3.30;;;;;;;14.67;88.20;99783.80;1715779;82;21562;-78
2022/09/11 11:02:57;;;;;;;3.92;3.72;;;;;;;14.73;88.23;99777.52;1715995;84;21051;-82
2022/09/11 11:05:37;;;;;;;4.00;3.67;;;;;;;14.80;88.12;99772.87;1714905;83;21121;-80
2022/09/11 11:08:36;;;;;;;3.98;3.67;;;;;;;14.86;88.20;99776.00;1715777;83;21126;-79
2022/09/11 11:11:14;;;;;;;3.80;3.60;;;;;;;14.88;88.25;99766.36;1715990;83;21764;-81
2022/09/11 11:14:12;;;;;;;4.85;4.50;;;;;;;14.86;88.30;99766.61;1715719;83;21118;-80
2022/09/11 11:17:17;;;;;;;4.30;4.00;;;;;;;14.87;87.90;99768.23;1715847;83;21365;-81
2022/09/11 11:19:55;;;;;;;4.33;3.70;;;;;;;14.89;87.87;99762.64;1716065;83;21023;-78
2022/09/11 11:23:08;;;;;;;3.65;3.35;;;;;;;14.87;86.62;99769.57;1715137;83;21522;-82
2022/09/11 11:25:45;;;;;;;4.22;3.70;;;;;;;14.80;86.53;99768.85;1715597;83;21523;-79
2022/09/11 11:28:33;;;;;;;3.62;3.33;;;;;;;14.70;86.76;99769.95;1715911;83;21205;-83
2022/09/11 11:31:32;;;;;;;4.22;3.90;;;;;;;14.68;87.10;99764.00;1715924;84;21023;-82
2022/09/11 11:34:35;;;;;;;3.08;2.95;;;;;;;14.68;87.17;99765.34;1716041;83;21058;-80
2022/09/11 11:37:13;;;;;;;2.83;2.72;;;;;;;14.69;86.99;99764.27;1715855;83;21078;-78
2022/09/11 11:40:22;;;;;;;3.65;3.47;;;;;;;14.71;87.02;99760.34;1716140;83;21073;-79
2022/09/11 11:43:00;;;;;;;3.77;3.50;;;;;;;14.75;86.51;99760.16;1715962;83;21044;-81
2022/09/11 11:45:37;;;;;;;4.50;4.03;;;;;;;14.75;86.11;99758.02;1716110;83;21031;-79
2022/09/11 11:48:15;;;;;;;3.65;3.45;;;;;;;14.74;86.92;99756.36;1716082;83;21043;-78
2022/09/11 11:50:46;;;;;;;3.85;3.55;;;;;;;14.76;86.62;99755.61;1716197;83;21024;-79
2022/09/11 11:53:37;;;;;;;3.70;3.47;;;;;;;14.78;86.54;99759.69;1716154;83;21011;-82
2022/09/11 11:56:10;;;;;;;3.85;3.65;;;;;;;14.78;86.17;99760.22;1715448;83;21139;-77
2022/09/11 11:58:59;;;;;;;4.10;3.85;;;;;;;14.77;86.07;99758.06;1716301;83;21031;-78
2022/09/11 12:01:39;;;;;;;;;;;;;;;14.80;86.52;99760.80;1718888;83;21030;-79
2022/09/11 12:04:47;;;;;;;3.67;3.47;;;;;;;14.83;86.13;99760.88;1717137;83;20135;-81
2022/09/11 12:07:29;;;;;;;3.30;3.10;;;;;;;14.76;85.45;99761.78;1718841;83;21043;-78
2022/09/11 12:10:00;;;;;;;3.22;2.75;;;;;;;14.75;85.88;99768.21;1718007;83;21896;-82
2022/09/11 12:12:32;;;;;;;3.30;3.10;;;;;;;14.72;85.59;99765.17;1718511;83;21035;-81
2022/09/11 12:15:10;;;;;;;3.58;3.47;;;;;;;14.71;86.02;99758.16;1718353;84;21082;-79